28 de mayo de 2022

Hora Código Tiempo Temp. Visibilidad Cielo nuboso Viento METAR/SPECI
2:00 p. m.
V
86 °F 6¼ mi+ - 150° 150° 10 - 20 kt METAR AYPY 280400Z 15010G20KT 9999 HZ SCT030 30/23 Q1008
1:00 p. m.
V
86 °F 6¼ mi+ - 150° 150° 10 - 20 kt METAR AYPY 280300Z 15010G20KT 9999 HZ SCT040 30/24 Q1009
12:00 p. m.
V
88 °F 6¼ mi+ - 140° 140° 10 - 20 kt METAR AYPY 280200Z 14010G20KT 9999 HZ FEW025 FEW090 31/22 Q1010
11:00 a. m.
V
86 °F 6¼ mi+ - 140° 140° 15 kt METAR AYPY 280100Z 14015KT 9999 HZ FEW020 FEW090 30/22 Q1011
10:00 a. m.
V
84 °F 6¼ mi+ - 170° 170° 10 kt METAR AYPY 280000Z 17010KT 9999 HZ FEW050 29/22 Q1012
9:00 a. m.
V
82 °F 6¼ mi+ - Var Var 3 kt METAR AYPY 272300Z VRB03KT 9999 HZ FEW040 28/22 Q1011
8:00 a. m.
V
77 °F 6¼ mi+ - Var Var 3 kt METAR AYPY 272200Z VRB03KT 9999 HZ FEW040 25/22 Q1011
7:00 a. m.
V
72 °F 6¼ mi+ - Var Var 3 kt METAR AYPY 272100Z VRB03KT 9999 HZ FEW040 22/21 Q1011
6:00 a. m.
V
72 °F 6¼ mi+ - Var Var 3 kt METAR AYPY 272000Z VRB03KT 9999 SCT080 22/21 Q1010
5:00 a. m.
V
70 °F 6¼ mi+ - Var Var 3 kt METAR AYPY 271900Z VRB03KT 9999 SCT080 21/21 Q1010
4:00 a. m.
V
70 °F 6¼ mi+ - Var Var 3 kt METAR AYPY 271800Z VRB03KT 9999 SCT130 21/21 Q1009
3:00 a. m.
V
70 °F 6¼ mi+ - Var 000° 0 kt METAR AYPY 271700Z 00000KT 9999 SCT130 21/21 Q1009=
2:00 a. m.
V
72 °F 6¼ mi+ - Var 000° 0 kt METAR AYPY 271600Z 00000KT 9999 SCT100 22/21 Q1010
1:00 a. m.
V
73 °F 6¼ mi+ - 170° 170° 3 kt METAR AYPY 271500Z 17003KT 9999 SCT080 23/21 Q1010
12:00 a. m.
V
73 °F 6¼ mi+ - 140° 140° 3 kt METAR AYPY 271400Z 14003KT 9999 SCT070 23/22 Q1011

27 de mayo de 2022

Hora Código Tiempo Temp. Visibilidad Cielo nuboso Viento METAR/SPECI
11:00 p. m.
V
75 °F 6¼ mi+ - 140° 140° 5 kt METAR AYPY 271300Z 14005KT 9999 SCT050 24/22 Q1011
10:00 p. m.
V
77 °F 6¼ mi+ - 130° 130° 10 kt METAR AYPY 271200Z 13010KT 9999 SCT050 25/22 Q1011
9:00 p. m.
V
77 °F 6¼ mi+ - 140° 140° 10 kt METAR AYPY 271100Z 14010KT 9999 SCT050 25/22 Q1011
8:00 p. m.
V
79 °F 6¼ mi+ - 140° 140° 5 - 15 kt METAR AYPY 271000Z 14005G15KT 9999 SCT050 26/23 Q1010
7:00 p. m.
V
79 °F 6¼ mi+ - 160° 160° 10 - 15 kt METAR AYPY 270900Z 16010G15KT 9999 SCT050 26/22 Q1010=
6:00 p. m.
V
81 °F 6¼ mi+ - 160° 160° 10 - 20 kt METAR AYPY 270800Z 16010G20KT 9999 FEW050 27/23 Q1009
5:00 p. m.
V
82 °F 6¼ mi+ - 160° 160° 10 - 20 kt METAR AYPY 270700Z 16010G20KT 9999 FEW050 HZ 28/23 Q1008
4:00 p. m.
V
84 °F 6¼ mi+ - 160° 160° 15 - 25 kt METAR AYPY 270600Z 16015G25KT 9999 HZ SCT040 29/23 Q1008
3:00 p. m.
V
86 °F 6¼ mi+ - 160° 160° 15 - 25 kt METAR AYPY 270500Z 16015G25KT 9999 HZ SCT035 30/23 Q1008
2:00 p. m.
V
86 °F 6¼ mi+ - 160° 160° 15 - 20 kt METAR AYPY 270400Z 16015G20KT 9999 HZ SCT040 30/23 Q1008
1:00 p. m.
V
88 °F 6¼ mi+ - 170° 170° 10 - 20 kt METAR AYPY 270300Z 17010G20KT 9999 HZ SCT030 31/23 Q1009
11:00 a. m.
V
86 °F 6¼ mi+ - 140° 140° 10 - 15 kt METAR AYPY 270100Z 14010G15KT 9999 HZ FEW040 30/22 Q1011
10:00 a. m.
V
86 °F 6¼ mi+ - 170° 170° 10 kt METAR AYPY 270000Z 17010KT 9999 HZ SKC 30/22 Q1011
9:00 a. m.
V
82 °F 6¼ mi+ - Var Var 3 kt METAR AYPY 262300Z VRB03KT 9999 HZ FEW050 28/22 Q1011
8:00 a. m.
V
77 °F 6¼ mi+ - Var Var 3 kt METAR AYPY 262200Z VRB03KT 9999 HZ FEW050 25/22 Q1011
7:00 a. m.
V
73 °F 6¼ mi+ - Var 000° 0 kt METAR AYPY 262100Z 00000KT 9999 HZ FEW050 23/22 Q1010
6:00 a. m.
V
72 °F 6¼ mi+ - Var Var 3 kt METAR AYPY 262000Z VRB03KT 9999 FEW050 22/24 Q1009
5:00 a. m.
V
72 °F 6¼ mi+ - Var Var 3 kt METAR AYPY 261900Z VRB03KT 9999 FEW050 22/22 Q1009
4:00 a. m.
V
72 °F 6¼ mi+ - Var Var 3 kt METAR AYPY 261800Z VRB03KT 9999 FEW050 22/21 Q1009
3:00 a. m.
V
73 °F 6¼ mi+ - Var Var 3 kt METAR AYPY 261700Z VRB03KT 9999 FEW050 23/22 Q1009
2:00 a. m.
V
73 °F 6¼ mi+ - 300° 300° 5 kt METAR AYPY 261600Z 30005KT 9999 FEW050 23/22 Q1010
1:00 a. m.
V
73 °F 6¼ mi+ - 300° 300° 5 kt METAR AYPY 261500Z 30005KT 9999 FEW050 23/22 Q1010
12:00 a. m.
V
75 °F 6¼ mi+ - 330° 330° 5 kt METAR AYPY 261400Z 33005KT 9999 FEW050 24/23 Q1011

26 de mayo de 2022

Hora Código Tiempo Temp. Visibilidad Cielo nuboso Viento METAR/SPECI
11:00 p. m.
V
77 °F 6¼ mi+ - Var Var 3 kt METAR AYPY 261300Z VRB03KT 9999 FEW080 25/23 Q1011
10:00 p. m.
V
77 °F 6¼ mi+ - Var Var 3 kt METAR AYPY 261200Z VRB03KT 9999 SCT080 25/23 Q1012
9:00 p. m.
V
79 °F 6¼ mi+ - 110° 110° 10 kt METAR AYPY 261100Z 11010KT 9999 SCT100 26/23 Q1011
8:00 p. m.
V
79 °F 6¼ mi+ 10.000 ft 130° 130° 10 kt METAR AYPY 261000Z 13010KT 9999 SCT080 BKN100 26/23 Q1011
7:00 p. m.
V
81 °F 6¼ mi+ 8.000 ft 170° 170° 10 kt METAR AYPY 260900Z 17010KT 9999 OVC080 27/23 Q1010
6:00 p. m.
V
81 °F 6¼ mi+ - 160° 160° 10 kt METAR AYPY 260800Z 16010KT 9999 FEW020 SCT040 27/23 Q1010
5:00 p. m.
V
82 °F 6¼ mi+ - 150° 150° 10 kt METAR AYPY 260700Z 15010KT 9999 FEW030 SCT080 28/24 Q1009
4:00 p. m.
V
84 °F 6¼ mi+ 8.000 ft 160° 160° 10 kt METAR AYPY 260600Z 16010KT 9999 FEW025 BKN080 29/ 24 Q1008
3:00 p. m.
V
84 °F 6¼ mi+ 8.000 ft Var Var 5 kt METAR AYPY 260500Z VRB05KT 9999 FEW025 BKN080 29/ 24 Q1008
1:00 p. m.
V
81 °F 6¼ mi+ 7.000 ft 320° 320° 10 kt METAR AYPY 260300Z 32010KT 9999 FEW025 BKN070 27/24 Q1010
12:00 p. m.
V
81 °F 6¼ mi+ 4.000 ft 360° 360° 10 kt METAR AYPY 260200Z 36010KT 9999 FEW020 BKN040 27/23 Q1010
11:00 a. m.
V
81 °F 6¼ mi+ 4.000 ft 200° 200° 3 kt METAR AYPY 260100Z 20003KT 9999 FEW020 BKN040 27/24 Q1011
10:00 a. m.
V
77 °F 6¼ mi+ 4.000 ft 100° 100° 3 kt METAR AYPY 260000Z 10003KT 9999 -SHRA FEW020 BKN040 25/23 Q1012
Datos más antiguos

Descarga nuestra aplicación

Acceso fácil a todo el tiempo de la aviación en tu teléfono móvil y tableta.
Con muchas funciones no disponibles en el sitio web, como la compatibilidad sin conexión y una lista personal de aeropuertos.

Nosotros y terceros seguimos tu comportamiento en Internet en nuestro sitio web con cookies. Si continúas, asumimos que estás de acuerdo con nuestra política de cookies. Más información